Time;durP1;ratioP1;P1;durP2;ratioP2;P2;SDS_P1;SDS_P2;PMS_P1;PMS_P2;Temp;Humidity;BMP_temperature;BMP_pressure;BME280_temperature;BME280_humidity;BME280_pressure;Samples;Min_cycle;Max_cycle;Signal;HPM_P1;HPM_P2
2023/01/20 00:01:47;;;;;;;;;;;;;;;25.88;36.15;93331.31;4948121;29;8107;-61
2023/01/20 00:04:17;;;;;;;;;;;;;;;25.87;35.68;93330.56;4948078;29;9421;-61
2023/01/20 00:06:43;;;;;;;;;;;;;;;25.85;35.79;93327.63;4932746;29;7365;-62
2023/01/20 00:09:15;;;;;;;;;;;;;;;25.84;35.79;93328.13;4940915;29;9837;-62
2023/01/20 00:11:41;;;;;;;;;;;;;;;25.83;36.09;93338.44;4952531;29;9387;-62
2023/01/20 00:14:09;;;;;;;;;;;;;;;25.81;35.92;93338.22;4942120;29;7090;-62
2023/01/20 00:16:35;;;;;;;;;;;;;;;25.82;35.46;93345.22;4932711;29;9912;-62
2023/01/20 00:19:06;;;;;;;;;;;;;;;25.81;35.31;93346.50;4927084;29;9425;-62
2023/01/20 00:21:35;;;;;;;;;;;;;;;25.80;35.96;93345.00;4949038;29;7019;-62
2023/01/20 00:24:01;;;;;;;;;;;;;;;25.77;35.45;93348.84;4948792;29;7365;-62
2023/01/20 00:26:27;;;;;;;;;;;;;;;25.80;35.35;93350.50;4948851;29;9031;-62
2023/01/20 00:28:54;;;;;;;;;;;;;;;25.80;35.72;93350.50;4930024;29;7346;-62
2023/01/20 00:31:31;;;;;;;;;;;;;;;25.80;35.40;93349.78;4947742;29;9375;-62
2023/01/20 00:34:04;;;;;;;;;;;;;;;25.77;35.46;93346.09;4929479;29;7007;-62
2023/01/20 00:36:32;;;;;;;;;;;;;;;25.80;36.35;93344.25;4950131;29;7227;-62
2023/01/20 00:39:00;;;;;;;;;;;;;;;25.78;36.07;93335.81;4952101;29;8760;-61
2023/01/20 00:41:26;;;;;;;;;;;;;;;25.77;36.23;93346.09;4933334;29;8630;-61
2023/01/20 00:43:52;;;;;;;;;;;;;;;25.74;36.31;93352.66;4949296;28;7425;-62
2023/01/20 00:46:21;;;;;;;;;;;;;;;25.77;35.66;93356.38;4936133;29;8678;-61
2023/01/20 00:48:48;;;;;;;;;;;;;;;25.76;35.82;93357.63;4942822;28;7099;-61
2023/01/20 00:51:16;;;;;;;;;;;;;;;25.77;35.90;93359.88;4940689;28;9126;-61
2023/01/20 00:53:45;;;;;;;;;;;;;;;25.77;36.16;93354.38;4956428;28;9339;-62
2023/01/20 00:56:11;;;;;;;;;;;;;;;25.75;36.12;93362.41;4939577;28;9072;-61
2023/01/20 00:58:37;;;;;;;;;;;;;;;25.74;35.93;93358.19;4957938;28;7017;-61
2023/01/20 01:01:10;;;;;;;;;;;;;;;25.74;35.86;93368.44;4942671;28;9012;-62
2023/01/20 01:03:43;;;;;;;;;;;;;;;25.73;35.87;93373.22;4954560;28;8965;-61
2023/01/20 01:06:22;;;;;;;;;;;;;;;25.74;35.30;93371.94;4936344;29;7111;-61
2023/01/20 01:08:52;;;;;;;;;;;;;;;25.73;36.08;93381.47;4929792;28;9058;-61
2023/01/20 01:11:24;;;;;;;;;;;;;;;25.72;36.50;93384.78;4946872;28;7421;-62
2023/01/20 01:14:05;;;;;;;;;;;;;;;25.73;35.36;93392.50;4940584;28;9313;-62
2023/01/20 01:16:45;;;;;;;;;;;;;;;25.73;35.86;93389.75;4957616;28;7054;-62
2023/01/20 01:19:19;;;;;;;;;;;;;;;25.74;36.67;93390.47;4939655;28;9095;-62
2023/01/20 01:21:47;;;;;;;;;;;;;;;25.71;35.88;93395.03;4924992;28;9293;-62
2023/01/20 01:24:25;;;;;;;;;;;;;;;25.71;35.84;93395.03;4955641;28;7500;-62
2023/01/20 01:27:07;;;;;;;;;;;;;;;25.73;35.74;93397.28;4957260;28;8955;-61
2023/01/20 01:29:42;;;;;;;;;;;;;;;25.68;36.32;93401.63;4939593;28;9118;-62
2023/01/20 01:32:09;;;;;;;;;;;;;;;25.70;36.27;93407.34;4953288;28;9149;-61
2023/01/20 01:34:35;;;;;;;;;;;;;;;25.70;36.02;93403.84;4948940;28;7496;-61
2023/01/20 01:37:01;;;;;;;;;;;;;;;25.71;35.96;93413.59;4939629;28;9144;-61
2023/01/20 01:39:37;;;;;;;;;;;;;;;25.71;35.91;93419.81;4954667;28;7073;-62
2023/01/20 01:42:14;;;;;;;;;;;;;;;25.71;36.42;93421.88;4936328;28;7015;-61
2023/01/20 01:45:22;;;;;;;;;;;;;;;25.72;35.81;93426.09;4940087;28;7032;-62
2023/01/20 01:48:04;;;;;;;;;;;;;;;25.71;35.73;93422.59;4939911;28;7495;-62
2023/01/20 01:50:55;;;;;;;;;;;;;;;25.70;35.63;93429.38;4934035;29;8667;-61
2023/01/20 01:53:23;;;;;;;;;;;;;;;25.69;36.52;93433.41;4952259;28;7260;-62
2023/01/20 01:55:58;;;;;;;;;;;;;;;25.69;36.37;93427.88;4949786;28;9671;-62
2023/01/20 01:58:34;;;;;;;;;;;;;;;25.71;36.58;93432.88;4953365;28;7015;-61
2023/01/20 02:01:06;;;;;;;;;;;;;;;25.71;36.02;93430.13;4936546;28;7035;-62
2023/01/20 02:04:09;;;;;;;;;;;;;;;25.71;36.20;93424.63;4953185;28;9385;-62
2023/01/20 02:07:14;;;;;;;;;;;;;;;25.72;35.82;93435.09;4938970;28;9472;-61
2023/01/20 02:09:41;;;;;;;;;;;;;;;25.68;35.78;93420.91;4956750;28;7709;-61
2023/01/20 02:12:36;;;;;;;;;;;;;;;25.71;36.50;93433.59;4955868;28;7040;-62
2023/01/20 02:15:40;;;;;;;;;;;;;;;25.70;36.25;93434.13;4944919;28;8744;-61
2023/01/20 02:18:51;;;;;;;;;;;;;;;25.69;35.82;93433.41;4930694;29;7765;-62
2023/01/20 02:21:54;;;;;;;;;;;;;;;25.69;35.92;93440.91;4916109;29;8719;-62
2023/01/20 02:24:42;;;;;;;;;;;;;;;25.67;36.54;93449.72;4903394;29;7628;-62
2023/01/20 02:27:26;;;;;;;;;;;;;;;25.67;35.89;93452.47;4899150;29;7048;-62
2023/01/20 02:30:35;;;;;;;;;;;;;;;25.68;36.22;93447.72;4893360;29;8334;-62
2023/01/20 02:33:22;;;;;;;;;;;;;;;25.66;35.64;93451.00;4873558;29;9230;-62
2023/01/20 02:36:09;;;;;;;;;;;;;;;25.67;35.99;93452.47;4877795;29;9345;-61
2023/01/20 02:38:46;;;;;;;;;;;;;;;25.66;36.03;93455.75;4858057;29;7154;-62
2023/01/20 02:41:36;;;;;;;;;;;;;;;25.67;36.51;93454.47;4872037;29;7339;-62
2023/01/20 02:44:14;;;;;;;;;;;;;;;25.65;36.33;93457.03;4868689;29;9193;-62
2023/01/20 02:47:11;;;;;;;;;;;;;;;25.66;35.92;93464.03;4845001;29;9134;-62
2023/01/20 02:50:04;;;;;;;;;;;;;;;25.66;36.28;93470.28;4852303;29;9090;-62
2023/01/20 02:52:35;;;;;;;;;;;;;;;25.66;35.98;93466.78;4853848;29;7235;-61
2023/01/20 02:55:10;;;;;;;;;;;;;;;25.66;35.65;93470.28;4869548;29;9034;-62
2023/01/20 02:57:44;;;;;;;;;;;;;;;25.66;36.21;93473.03;4857231;29;8099;-61
2023/01/20 03:00:24;;;;;;;;;;;;;;;25.67;36.14;93480.00;4854763;29;8005;-62
2023/01/20 03:02:57;;;;;;;;;;;;;;;25.67;36.51;93485.53;4857844;29;7121;-62
2023/01/20 03:05:41;;;;;;;;;;;;;;;25.64;35.89;93480.34;4854032;29;7094;-62
2023/01/20 03:08:12;;;;;;;;;;;;;;;25.66;36.46;93484.06;4859272;29;7023;-62
2023/01/20 03:10:41;;;;;;;;;;;;;;;25.66;36.25;93484.06;4926519;28;9064;-62
2023/01/20 03:13:24;;;;;;;;;;;;;;;25.66;35.66;93480.56;4950080;28;8931;-61
2023/01/20 03:16:02;;;;;;;;;;;;;;;25.66;36.42;93480.56;4946951;28;9067;-61
2023/01/20 03:18:34;;;;;;;;;;;;;;;25.66;35.92;93483.31;4933155;29;7233;-61
2023/01/20 03:21:04;;;;;;;;;;;;;;;25.66;35.83;93488.81;4948107;28;9158;-62
2023/01/20 03:23:34;;;;;;;;;;;;;;;25.65;35.66;93487.31;4935458;28;9435;-62
2023/01/20 03:26:10;;;;;;;;;;;;;;;25.64;36.40;93486.59;4934520;28;9219;-62
2023/01/20 03:28:39;;;;;;;;;;;;;;;25.64;35.90;93494.88;4934915;28;9134;-62
2023/01/20 03:31:28;;;;;;;;;;;;;;;25.64;35.83;93496.88;4949947;28;8741;-62
2023/01/20 03:33:58;;;;;;;;;;;;;;;25.63;36.40;93496.13;4951981;28;6956;-62
2023/01/20 03:36:30;;;;;;;;;;;;;;;25.65;35.96;93503.84;4940335;28;7115;-62
2023/01/20 03:38:58;;;;;;;;;;;;;;;25.64;36.11;93508.63;4951331;28;8730;-62
2023/01/20 03:41:49;;;;;;;;;;;;;;;25.63;35.96;93496.13;4941638;29;7034;-62
2023/01/20 03:44:50;;;;;;;;;;;;;;;25.64;36.14;93511.38;4948019;29;7163;-62
2023/01/20 03:47:47;;;;;;;;;;;;;;;25.65;35.58;93506.59;4895573;29;7227;-62
2023/01/20 03:50:36;;;;;;;;;;;;;;;25.66;35.59;93519.09;4904426;29;7031;-62
2023/01/20 03:53:17;;;;;;;;;;;;;;;25.65;36.19;93506.59;4873794;29;9364;-61
2023/01/20 03:55:51;;;;;;;;;;;;;;;25.64;35.99;93507.88;4906370;29;9061;-62
2023/01/20 03:58:31;;;;;;;;;;;;;;;25.64;36.05;93518.91;4875081;29;9748;-61
2023/01/20 04:01:03;;;;;;;;;;;;;;;25.64;36.14;93521.66;4877576;29;9086;-61
2023/01/20 04:03:34;;;;;;;;;;;;;;;25.64;35.82;93519.66;4874653;29;7527;-62
2023/01/20 04:06:05;;;;;;;;;;;;;;;25.63;36.47;93520.91;4901530;29;7503;-61
2023/01/20 04:08:36;;;;;;;;;;;;;;;25.62;36.14;93522.16;4895664;29;8759;-61
2023/01/20 04:11:13;;;;;;;;;;;;;;;25.62;35.98;93516.66;4878187;29;7628;-61
2023/01/20 04:13:39;;;;;;;;;;;;;;;25.62;35.76;93522.16;4883081;29;9148;-62
2023/01/20 04:16:25;;;;;;;;;;;;;;;25.63;36.48;93522.91;4888762;29;7063;-62
2023/01/20 04:19:00;;;;;;;;;;;;;;;25.63;36.36;93523.66;4863517;29;7178;-61
2023/01/20 04:21:33;;;;;;;;;;;;;;;25.65;36.14;93528.63;4911702;28;7137;-62
2023/01/20 04:24:10;;;;;;;;;;;;;;;25.63;36.25;93537.44;4954159;28;7968;-62
2023/01/20 04:26:36;;;;;;;;;;;;;;;25.63;35.92;93533.94;4946421;28;7000;-62
2023/01/20 04:29:08;;;;;;;;;;;;;;;25.64;35.81;93540.94;4952010;28;8924;-62
2023/01/20 04:31:35;;;;;;;;;;;;;;;25.63;35.84;93550.44;4948106;28;9310;-62
2023/01/20 04:34:06;;;;;;;;;;;;;;;25.61;35.89;93542.72;4940429;28;8374;-62
2023/01/20 04:36:38;;;;;;;;;;;;;;;25.62;36.17;93544.19;4957980;28;8686;-62
2023/01/20 04:39:21;;;;;;;;;;;;;;;25.61;35.84;93553.00;4956372;28;7670;-62
2023/01/20 04:42:25;;;;;;;;;;;;;;;25.62;36.53;93555.22;4955977;28;9443;-61
2023/01/20 04:44:53;;;;;;;;;;;;;;;25.63;36.19;93556.72;4950289;28;8988;-62
2023/01/20 04:47:21;;;;;;;;;;;;;;;25.64;36.24;93560.97;4938171;29;8717;-62
2023/01/20 04:49:56;;;;;;;;;;;;;;;25.61;36.54;93559.25;4928126;28;6857;-62
2023/01/20 04:52:24;;;;;;;;;;;;;;;25.61;36.62;93573.03;4958448;28;7159;-62
2023/01/20 04:54:50;;;;;;;;;;;;;;;25.61;36.04;93575.78;4956871;28;9110;-62
2023/01/20 04:57:18;;;;;;;;;;;;;;;25.61;36.33;93578.53;4957425;28;7018;-62
2023/01/20 05:00:39;;;;;;;;;;;;;;;25.60;35.66;93582.53;4939841;28;7654;-62
2023/01/20 05:03:26;;;;;;;;;;;;;;;25.60;35.93;93585.28;4936688;29;7496;-62
2023/01/20 05:06:20;;;;;;;;;;;;;;;25.61;36.62;93586.03;4936134;29;7270;-62
2023/01/20 05:08:57;;;;;;;;;;;;;;;25.62;35.86;93593.03;4920694;29;7368;-62
2023/01/20 05:11:25;;;;;;;;;;;;;;;25.61;35.57;93589.53;4929839;29;8978;-62
2023/01/20 05:14:12;;;;;;;;;;;;;;;25.62;36.23;93587.53;4919298;29;9098;-62
2023/01/20 05:16:48;;;;;;;;;;;;;;;25.62;35.67;93593.75;4920361;29;6883;-62
2023/01/20 05:19:23;;;;;;;;;;;;;;;25.62;36.75;93609.56;4919931;29;9018;-62
2023/01/20 05:21:58;;;;;;;;;;;;;;;25.61;35.90;93603.31;4935797;29;9270;-62
2023/01/20 05:24:36;;;;;;;;;;;;;;;25.60;35.70;93607.31;4934299;29;9120;-62
2023/01/20 05:27:02;;;;;;;;;;;;;;;25.60;35.71;93610.06;4922806;29;7876;-62
2023/01/20 05:29:31;;;;;;;;;;;;;;;25.59;35.82;93607.88;4934983;29;9076;-62
2023/01/20 05:32:00;;;;;;;;;;;;;;;25.59;36.35;93613.38;4935668;29;7023;-62
2023/01/20 05:34:26;;;;;;;;;;;;;;;25.60;36.01;93623.84;4944375;28;7083;-62
2023/01/20 05:37:01;;;;;;;;;;;;;;;25.59;36.07;93627.88;4933605;29;7129;-62
2023/01/20 05:39:28;;;;;;;;;;;;;;;25.60;35.78;93634.88;4939425;28;7252;-62
2023/01/20 05:41:54;;;;;;;;;;;;;;;25.60;36.24;93628.63;4951069;28;6967;-62
2023/01/20 05:44:22;;;;;;;;;;;;;;;25.60;36.48;93637.63;4947123;28;9243;-62
2023/01/20 05:46:48;;;;;;;;;;;;;;;25.59;36.75;93638.91;4950240;28;7221;-62
2023/01/20 05:49:16;;;;;;;;;;;;;;;25.59;35.79;93647.16;4947363;28;6989;-62
2023/01/20 05:51:44;;;;;;;;;;;;;;;25.58;36.24;93648.41;4948607;28;8998;-62
2023/01/20 05:54:13;;;;;;;;;;;;;;;25.59;36.21;93652.66;4947692;28;9065;-62
2023/01/20 05:56:39;;;;;;;;;;;;;;;25.61;36.50;93661.13;4950336;28;9365;-62
2023/01/20 05:59:15;;;;;;;;;;;;;;;25.67;36.90;93661.78;4950917;28;7096;-62
2023/01/20 06:01:43;;;;;;;;;;;;;;;25.69;36.29;93664.00;4945348;28;9129;-62
2023/01/20 06:04:25;;;;;;;;;;;;;;;25.74;35.79;93674.94;4953607;28;7034;-63
2023/01/20 06:06:54;;;;;;;;;;;;;;;25.69;36.84;93675.75;4920459;29;8894;-62
2023/01/20 06:09:40;;;;;;;;;;;;;;;25.68;36.04;93677.03;4938936;28;7077;-62
2023/01/20 06:12:12;;;;;;;;;;;;;;;25.68;36.33;93688.06;4953277;28;7150;-62
2023/01/20 06:14:39;;;;;;;;;;;;;;;25.67;36.36;93691.31;4954179;28;9002;-62
2023/01/20 06:17:11;;;;;;;;;;;;;;;25.67;36.60;93694.06;4936457;28;7349;-62
2023/01/20 06:19:49;;;;;;;;;;;;;;;25.66;36.31;93698.13;4932545;28;9103;-61
2023/01/20 06:22:24;;;;;;;;;;;;;;;25.71;36.07;93706.28;4934530;29;7177;-62
2023/01/20 06:24:51;;;;;;;;;;;;;;;25.74;36.51;93704.47;4944488;28;7209;-62
2023/01/20 06:27:32;;;;;;;;;;;;;;;25.77;36.75;93709.69;4951147;28;7164;-61
2023/01/20 06:30:05;;;;;;;;;;;;;;;25.75;36.05;93714.97;4949261;28;7222;-62
2023/01/20 06:32:33;;;;;;;;;;;;;;;25.73;36.54;93709.25;4947125;28;8761;-62
2023/01/20 06:35:00;;;;;;;;;;;;;;;25.72;36.08;93721.53;4929747;28;7317;-63
2023/01/20 06:37:28;;;;;;;;;;;;;;;25.76;36.77;93721.97;4947998;28;9419;-63
2023/01/20 06:39:54;;;;;;;;;;;;;;;25.81;36.47;93721.13;4931558;28;7629;-63
2023/01/20 06:42:20;;;;;;;;;;;;;;;25.82;36.01;93733.63;4931408;28;7494;-63
2023/01/20 06:44:48;;;;;;;;;;;;;;;25.81;35.71;93737.66;4946377;28;9055;-62
2023/01/20 06:47:14;;;;;;;;;;;;;;;25.74;35.63;93732.78;4932975;28;7344;-63
2023/01/20 06:49:40;;;;;;;;;;;;;;;25.74;35.81;93741.03;4932901;28;9092;-63
2023/01/20 06:52:08;;;;;;;;;;;;;;;25.71;35.85;93739.31;4943455;28;8974;-62
2023/01/20 06:54:34;;;;;;;;;;;;;;;25.76;35.52;93746.75;4944217;28;7150;-63
2023/01/20 06:57:03;;;;;;;;;;;;;;;25.75;35.98;93747.28;4934252;28;9354;-63
2023/01/20 06:59:38;;;;;;;;;;;;;;;25.71;36.05;93749.63;4931569;28;7063;-63
2023/01/20 07:02:13;;;;;;;;;;;;;;;25.76;35.71;93757.78;4951505;28;7058;-63
2023/01/20 07:04:41;;;;;;;;;;;;;;;25.80;35.64;93763.72;4936598;28;9513;-63
2023/01/20 07:07:36;;;;;;;;;;;;;;;25.75;36.86;93766.56;4952948;28;8234;-63
2023/01/20 07:10:04;;;;;;;;;;;;;;;25.70;36.23;93776.41;4891219;29;8925;-63
2023/01/20 07:12:30;;;;;;;;;;;;;;;25.68;36.41;93787.22;4879874;29;9193;-63
2023/01/20 07:14:56;;;;;;;;;;;;;;;25.73;35.74;93789.13;4878858;29;9472;-63
2023/01/20 07:17:22;;;;;;;;;;;;;;;25.72;35.78;93793.16;4886085;29;9330;-64
2023/01/20 07:19:57;;;;;;;;;;;;;;;25.71;35.49;93794.41;4887760;29;7152;-63
2023/01/20 07:22:32;;;;;;;;;;;;;;;25.64;35.63;93794.28;4894270;29;8729;-62
2023/01/20 07:25:09;;;;;;;;;;;;;;;25.59;35.89;93801.38;4878479;29;7042;-62
2023/01/20 07:27:48;;;;;;;;;;;;;;;25.65;36.43;93812.28;4891887;29;7269;-63
2023/01/20 07:30:51;;;;;;;;;;;;;;;25.61;36.31;93809.84;4874678;29;9023;-63
2023/01/20 07:33:26;;;;;;;;;;;;;;;25.59;36.75;93819.91;4872436;29;8985;-63
2023/01/20 07:36:10;;;;;;;;;;;;;;;25.60;36.63;93822.13;4876730;29;7259;-63
2023/01/20 07:38:37;;;;;;;;;;;;;;;25.56;36.95;93821.69;4862078;29;7294;-63
2023/01/20 07:41:21;;;;;;;;;;;;;;;25.54;36.87;93824.22;4860704;29;7031;-62
2023/01/20 07:43:51;;;;;;;;;;;;;;;25.51;36.61;93841.81;4862074;29;9372;-62
2023/01/20 07:46:21;;;;;;;;;;;;;;;25.57;37.08;93836.97;4871765;29;9222;-62
2023/01/20 07:48:49;;;;;;;;;;;;;;;25.64;36.15;93843.88;4862777;29;9451;-61
2023/01/20 07:51:15;;;;;;;;;;;;;;;25.68;36.52;93839.53;4861074;29;6994;-62
2023/01/20 07:53:47;;;;;;;;;;;;;;;25.69;36.61;93841.00;4859033;29;7004;-62
2023/01/20 07:56:18;;;;;;;;;;;;;;;25.71;36.73;93846.75;4859481;29;6982;-62
2023/01/20 07:58:46;;;;;;;;;;;;;;;25.76;37.02;93845.16;4876643;29;7027;-62
2023/01/20 08:01:30;;;;;;;;;;;;;;;25.76;36.88;93850.69;4859901;29;9139;-62
2023/01/20 08:04:08;;;;;;;;;;;;;;;25.78;35.77;93848.16;4862632;29;6951;-62
2023/01/20 08:06:34;;;;;;;;;;;;;;;25.79;36.42;93860.66;4893065;29;9205;-62
2023/01/20 08:09:10;;;;;;;;;;;;;;;25.80;35.68;93854.63;4938245;28;9020;-62
2023/01/20 08:11:39;;;;;;;;;;;;;;;25.81;36.81;93853.38;4943367;28;7057;-62
2023/01/20 08:14:06;;;;;;;;;;;;;;;25.80;36.04;93862.13;4949318;28;7045;-63
2023/01/20 08:16:34;;;;;;;;;;;;;;;25.79;36.38;93864.16;4933705;28;7023;-62
2023/01/20 08:19:07;;;;;;;;;;;;;;;25.83;36.03;93874.88;4940754;28;6954;-62
2023/01/20 08:21:34;;;;;;;;;;;;;;;25.83;36.87;93872.88;4934285;28;7256;-62
2023/01/20 08:24:05;;;;;;;;;;;;;;;25.75;32.82;93882.97;4938732;28;8613;-63
2023/01/20 08:26:49;;;;;;;;;;;;;;;25.13;21.58;93884.34;4956137;28;7601;-62
2023/01/20 08:29:25;;;;;;;;;;;;;;;24.64;26.51;93906.38;4956900;28;8970;-62
2023/01/20 08:31:51;;;;;;;;;;;;;;;24.54;25.16;93896.22;4935084;28;9097;-62
2023/01/20 08:34:20;;;;;;;;;;;;;;;24.54;24.71;93893.47;4932136;28;7462;-62
2023/01/20 08:36:51;;;;;;;;;;;;;;;24.63;24.39;93904.91;4933457;28;9035;-62
2023/01/20 08:39:19;;;;;;;;;;;;;;;24.70;22.85;93909.81;4946301;28;7043;-62
2023/01/20 08:41:48;;;;;;;;;;;;;;;24.82;23.85;93917.97;4942738;28;9040;-62
2023/01/20 08:44:19;;;;;;;;;;;;;;;24.88;22.41;93910.41;4950389;28;9082;-62
2023/01/20 08:46:51;;;;;;;;;;;;;;;24.97;23.57;93927.28;4946805;28;9016;-62
2023/01/20 08:49:18;;;;;;;;;;;;;;;25.04;24.36;93923.97;4952070;28;7386;-62
2023/01/20 08:51:44;;;;;;;;;;;;;;;25.11;25.01;93931.66;4954640;28;9363;-62
2023/01/20 08:54:13;;;;;;;;;;;;;;;25.16;25.21;93930.84;4948945;28;9771;-62
2023/01/20 08:56:39;;;;;;;;;;;;;;;25.13;24.15;93933.88;4954072;28;7269;-62
2023/01/20 08:59:18;;;;;;;;;;;;;;;25.13;24.40;93937.38;4937928;28;7197;-62
2023/01/20 09:01:56;;;;;;;;;;;;;;;25.10;25.61;93941.16;4933784;28;8574;-62
2023/01/20 09:04:22;;;;;;;;;;;;;;;25.12;25.37;93938.63;4940173;28;7019;-62
2023/01/20 09:06:57;;;;;;;;;;;;;;;25.14;25.41;93949.84;4956038;28;7023;-62
2023/01/20 09:09:23;;;;;;;;;;;;;;;25.19;26.37;93951.06;4955281;28;9020;-62
2023/01/20 09:11:51;;;;;;;;;;;;;;;25.21;26.48;93956.78;4937972;28;8706;-62
2023/01/20 09:14:21;;;;;;;;;;;;;;;25.23;26.53;93954.25;4946069;28;8971;-62
2023/01/20 09:16:49;;;;;;;;;;;;;;;25.23;27.03;93959.75;4936029;28;8986;-62
2023/01/20 09:19:19;;;;;;;;;;;;;;;25.25;26.75;93957.97;4952273;28;9759;-62
2023/01/20 09:21:47;;;;;;;;;;;;;;;25.29;27.05;93963.22;4929258;29;6898;-62
2023/01/20 09:24:14;;;;;;;;;;;;;;;25.31;27.31;93963.44;4953866;28;9030;-62
2023/01/20 09:26:40;;;;;;;;;;;;;;;25.34;27.21;93970.63;4954317;28;7374;-62
2023/01/20 09:29:14;;;;;;;;;;;;;;;25.39;28.17;93969.84;4955276;28;9033;-62
2023/01/20 09:31:49;;;;;;;;;;;;;;;25.40;27.71;93968.59;4938885;28;9273;-62
2023/01/20 09:34:20;;;;;;;;;;;;;;;25.40;28.47;93963.81;4949077;28;7187;-62
2023/01/20 09:46:06;;;;;;;;;;;;;;;25.49;29.47;93987.50;4941339;28;7384;-62
2023/01/20 09:54:32;;;;;;;;;;;;;;;25.52;30.21;93997.50;4948601;28;9417;-62
2023/01/20 09:57:01;;;;;;;;;;;;;;;25.53;29.75;94007.25;4951995;28;7221;-62
2023/01/20 09:59:41;;;;;;;;;;;;;;;25.51;30.62;94003.53;4947570;28;7108;-62
2023/01/20 10:02:22;;;;;;;;;;;;;;;25.46;30.31;94016.09;4950650;28;9045;-62
2023/01/20 10:05:00;;;;;;;;;;;;;;;25.43;30.94;94017.88;4938969;28;7066;-62
2023/01/20 10:07:54;;;;;;;;;;;;;;;25.43;30.34;94017.88;4939273;28;8702;-62
2023/01/20 10:10:33;;;;;;;;;;;;;;;25.45;30.75;94016.63;4947252;28;9063;-62
2023/01/20 10:13:34;;;;;;;;;;;;;;;25.49;30.28;94009.53;4937442;28;8982;-62
2023/01/20 10:16:21;;;;;;;;;;;;;;;25.50;31.01;94016.53;4893767;29;9101;-61
2023/01/20 10:19:03;;;;;;;;;;;;;;;25.52;30.44;94016.00;4890129;29;9364;-62
2023/01/20 10:21:54;;;;;;;;;;;;;;;25.54;31.15;94019.75;4879200;29;9334;-62
2023/01/20 10:24:32;;;;;;;;;;;;;;;25.58;31.52;94022.22;4879082;29;7014;-62
2023/01/20 10:27:08;;;;;;;;;;;;;;;25.56;31.31;94011.69;4881485;29;7208;-62
2023/01/20 10:29:46;;;;;;;;;;;;;;;25.59;31.64;94013.44;4880761;29;9074;-62
2023/01/20 10:32:32;;;;;;;;;;;;;;;25.62;30.77;94017.88;4896591;29;7299;-62
2023/01/20 10:35:14;;;;;;;;;;;;;;;25.62;31.03;94020.63;4877245;29;7082;-62
2023/01/20 10:37:41;;;;;;;;;;;;;;;25.62;31.44;94017.88;4895317;29;7902;-62
2023/01/20 10:40:48;;;;;;;;;;;;;;;25.65;31.73;94021.59;4880870;29;7449;-62
2023/01/20 10:43:17;;;;;;;;;;;;;;;25.65;31.19;94019.59;4872611;29;9351;-62
2023/01/20 10:46:33;;;;;;;;;;;;;;;25.65;31.89;94016.09;4890976;29;7301;-62
2023/01/20 10:49:04;;;;;;;;;;;;;;;25.67;31.25;94013.56;4865120;29;7412;-62
2023/01/20 10:51:51;;;;;;;;;;;;;;;25.60;31.85;94003.88;4879606;29;7844;-62
2023/01/20 10:54:29;;;;;;;;;;;;;;;25.56;31.55;94003.44;4913781;29;7420;-62
2023/01/20 10:57:00;;;;;;;;;;;;;;;25.55;32.17;94012.97;4906692;29;7252;-62
2023/01/20 10:59:47;;;;;;;;;;;;;;;25.53;31.82;94007.25;4910993;29;7040;-62
2023/01/20 11:02:24;;;;;;;;;;;;;;;25.56;31.69;94014.47;4906420;29;7462;-62
2023/01/20 11:05:12;;;;;;;;;;;;;;;25.61;32.74;94013.66;4905071;29;9496;-61
2023/01/20 11:08:10;;;;;;;;;;;;;;;25.64;32.17;94023.63;4904288;29;7536;-62
2023/01/20 11:10:46;;;;;;;;;;;;;;;25.66;32.07;94018.34;4902219;29;9085;-62
2023/01/20 11:13:16;;;;;;;;;;;;;;;25.70;32.33;94024.31;4888258;29;9064;-62
2023/01/20 11:15:55;;;;;;;;;;;;;;;25.71;32.14;94027.81;4897397;29;8688;-62
2023/01/20 11:18:23;;;;;;;;;;;;;;;25.67;32.10;94019.81;4901938;29;10106;-61
2023/01/20 11:20:53;;;;;;;;;;;;;;;25.66;32.15;94017.59;4894618;29;7462;-62
2023/01/20 11:23:36;;;;;;;;;;;;;;;25.62;31.80;94015.13;4922796;28;7626;-62
2023/01/20 11:26:08;;;;;;;;;;;;;;;25.66;31.92;94025.88;4950483;28;7504;-62
2023/01/20 11:29:01;;;;;;;;;;;;;;;25.69;32.06;94022.81;4945918;28;9432;-62
2023/01/20 11:31:38;;;;;;;;;;;;;;;25.70;33.10;94032.56;4951161;28;7268;-62
2023/01/20 11:34:24;;;;;;;;;;;;;;;25.71;32.91;94036.81;4933044;28;7069;-62
2023/01/20 11:37:19;;;;;;;;;;;;;;;25.70;32.78;94035.31;4949060;28;7594;-62
2023/01/20 11:40:14;;;;;;;;;;;;;;;25.71;32.89;94034.03;4935687;28;9447;-62
2023/01/20 11:42:45;;;;;;;;;;;;;;;25.72;32.77;94041.06;4950239;28;8746;-62
2023/01/20 11:45:36;;;;;;;;;;;;;;;25.71;33.66;94047.81;4931972;29;7108;-62
2023/01/20 11:48:05;;;;;;;;;;;;;;;25.68;33.52;94054.38;4946693;29;7051;-62
2023/01/20 11:50:37;;;;;;;;;;;;;;;25.69;33.16;94044.09;4932415;29;7632;-62
2023/01/20 11:53:30;;;;;;;;;;;;;;;25.71;32.95;94041.59;4930193;29;9076;-62
2023/01/20 11:56:18;;;;;;;;;;;;;;;25.72;33.26;94045.81;4934386;29;9074;-62
2023/01/20 11:58:53;;;;;;;;;;;;;;;25.71;32.91;94050.56;4934836;29;8543;-62
2023/01/20 12:01:27;;;;;;;;;;;;;;;25.72;33.59;94049.31;4947096;29;7278;-61
2023/01/20 12:04:20;;;;;;;;;;;;;;;25.74;33.92;94051.53;4935644;29;9112;-62
2023/01/20 12:07:08;;;;;;;;;;;;;;;25.78;33.20;94058.25;4951647;29;9031;-62
2023/01/20 12:09:39;;;;;;;;;;;;;;;25.79;32.97;94053.50;4935939;29;9187;-62
2023/01/20 12:12:45;;;;;;;;;;;;;;;25.76;32.93;94060.78;4927750;29;9836;-62
2023/01/20 12:15:21;;;;;;;;;;;;;;;25.75;33.52;94067.56;4922865;29;7139;-62
2023/01/20 12:18:16;;;;;;;;;;;;;;;25.74;33.70;94060.56;4926269;29;9042;-62
2023/01/20 12:21:00;;;;;;;;;;;;;;;25.73;33.70;94058.34;4878007;29;9013;-63
2023/01/20 12:23:44;;;;;;;;;;;;;;;25.74;32.88;94057.06;4877056;29;7174;-63
2023/01/20 12:26:15;;;;;;;;;;;;;;;25.72;33.54;94065.84;4891017;29;9033;-63
2023/01/20 12:29:11;;;;;;;;;;;;;;;25.74;33.82;94063.31;4895528;29;9313;-63
2023/01/20 12:31:38;;;;;;;;;;;;;;;25.75;33.99;94066.81;4889917;29;7458;-63
2023/01/20 12:34:14;;;;;;;;;;;;;;;25.75;32.75;94064.78;4867650;29;9065;-63
2023/01/20 12:36:58;;;;;;;;;;;;;;;25.76;33.55;94066.28;4897235;29;9247;-63
2023/01/20 12:39:58;;;;;;;;;;;;;;;25.81;33.69;94071.00;4862905;29;7023;-63
2023/01/20 12:43:03;;;;;;;;;;;;;;;25.78;33.99;94069.28;4887742;29;8774;-63
2023/01/20 12:45:44;;;;;;;;;;;;;;;25.77;33.00;94073.31;4853898;29;7123;-63
2023/01/20 12:48:19;;;;;;;;;;;;;;;25.76;33.62;94071.81;4857275;29;8480;-63
2023/01/20 12:51:34;;;;;;;;;;;;;;;25.78;33.51;94071.28;4852037;29;7273;-63
2023/01/20 12:54:15;;;;;;;;;;;;;;;25.77;34.34;94073.31;4802357;29;9065;-63
2023/01/20 12:57:08;;;;;;;;;;;;;;;25.79;33.52;94065.28;4825614;29;9493;-63
2023/01/20 13:00:08;;;;;;;;;;;;;;;25.82;34.43;94063.47;4861257;29;7148;-63
2023/01/20 13:02:37;;;;;;;;;;;;;;;25.82;33.93;94066.97;4842600;29;7063;-63
2023/01/20 13:05:30;;;;;;;;;;;;;;;25.87;33.87;94062.66;4874721;29;9088;-63
2023/01/20 13:08:31;;;;;;;;;;;;;;;25.92;34.71;94056.34;4851581;29;7046;-63
2023/01/20 13:11:22;;;;;;;;;;;;;;;25.93;33.82;94055.81;4856807;29;7336;-63
2023/01/20 13:14:12;;;;;;;;;;;;;;;25.95;34.52;94064.28;4864502;29;9476;-63
2023/01/20 13:16:57;;;;;;;;;;;;;;;25.98;33.99;94060.50;4855340;29;7284;-63
2023/01/20 13:19:40;;;;;;;;;;;;;;;26.00;33.89;94057.97;4871142;29;7432;-63
2023/01/20 13:22:16;;;;;;;;;;;;;;;26.01;34.73;94064.97;4878131;28;7273;-63
2023/01/20 13:24:49;;;;;;;;;;;;;;;26.01;33.71;94059.44;4950255;28;9350;-63
2023/01/20 13:27:37;;;;;;;;;;;;;;;26.04;34.36;94069.44;4953625;28;8464;-63
2023/01/20 13:30:05;;;;;;;;;;;;;;;26.04;34.06;94069.44;4937491;28;7302;-63
2023/01/20 13:32:43;;;;;;;;;;;;;;;26.01;34.38;94069.75;4944064;28;7089;-63
2023/01/20 13:35:23;;;;;;;;;;;;;;;26.03;34.61;94072.72;4936027;28;8662;-63
2023/01/20 13:38:03;;;;;;;;;;;;;;;26.02;34.20;94077.50;4934315;28;9361;-63
2023/01/20 13:40:35;;;;;;;;;;;;;;;26.04;34.55;94076.97;4946199;28;9419;-63
2023/01/20 13:43:25;;;;;;;;;;;;;;;26.05;34.88;94081.22;4953197;28;9091;-63
2023/01/20 13:46:08;;;;;;;;;;;;;;;26.08;34.15;94077.41;4948808;28;7507;-63
2023/01/20 13:48:37;;;;;;;;;;;;;;;26.13;34.76;94076.63;4929055;28;7346;-62
2023/01/20 13:51:15;;;;;;;;;;;;;;;26.16;34.51;94076.31;4950736;28;9056;-63
2023/01/20 13:53:42;;;;;;;;;;;;;;;26.20;34.91;94076.03;4933686;28;7285;-63
2023/01/20 13:56:29;;;;;;;;;;;;;;;26.25;33.82;94082.72;4943116;28;8719;-62
2023/01/20 13:58:58;;;;;;;;;;;;;;;26.28;34.38;94084.44;4927231;28;9051;-62
2023/01/20 14:01:26;;;;;;;;;;;;;;;26.30;34.06;94090.16;4935208;28;7249;-62
2023/01/20 14:04:05;;;;;;;;;;;;;;;26.32;34.44;94080.09;4929582;28;9162;-62